sensor_id;sensor_type;location;lat;lon;timestamp;P1;durP1;ratioP1;P2;durP2;ratioP2
6665;SDS011;3369;49.906;8.598;2022-10-17T02:42:55;4.20;;;3.23;;
6665;SDS011;3369;49.906;8.598;2022-10-17T02:45:25;5.47;;;3.80;;
6665;SDS011;3369;49.906;8.598;2022-10-17T02:48:02;3.80;;;3.33;;
6665;SDS011;3369;49.906;8.598;2022-10-17T02:50:35;3.97;;;3.10;;
6665;SDS011;3369;49.906;8.598;2022-10-17T02:53:20;3.10;;;2.80;;
6665;SDS011;3369;49.906;8.598;2022-10-17T02:55:55;3.07;;;2.67;;
6665;SDS011;3369;49.906;8.598;2022-10-17T02:58:28;2.93;;;2.73;;
6665;SDS011;3369;49.906;8.598;2022-10-17T03:00:57;4.27;;;2.90;;
6665;SDS011;3369;49.906;8.598;2022-10-17T03:03:24;3.57;;;2.40;;
6665;SDS011;3369;49.906;8.598;2022-10-17T03:05:52;2.70;;;2.40;;
6665;SDS011;3369;49.906;8.598;2022-10-17T03:08:18;3.93;;;2.43;;
6665;SDS011;3369;49.906;8.598;2022-10-17T03:10:45;2.63;;;2.43;;
6665;SDS011;3369;49.906;8.598;2022-10-17T03:13:11;2.20;;;2.10;;
6665;SDS011;3369;49.906;8.598;2022-10-17T03:15:37;3.00;;;2.00;;
6665;SDS011;3369;49.906;8.598;2022-10-17T03:18:03;4.03;;;2.30;;
6665;SDS011;3369;49.906;8.598;2022-10-17T03:20:28;3.10;;;2.80;;
6665;SDS011;3369;49.906;8.598;2022-10-17T03:22:54;4.03;;;2.63;;
6665;SDS011;3369;49.906;8.598;2022-10-17T03:25:20;2.80;;;2.60;;
6665;SDS011;3369;49.906;8.598;2022-10-17T03:27:46;3.37;;;2.67;;
6665;SDS011;3369;49.906;8.598;2022-10-17T03:30:12;3.10;;;2.63;;
6665;SDS011;3369;49.906;8.598;2022-10-17T03:32:37;7.03;;;2.30;;
6665;SDS011;3369;49.906;8.598;2022-10-17T03:35:03;3.13;;;2.57;;
6665;SDS011;3369;49.906;8.598;2022-10-17T03:37:29;2.77;;;2.57;;
6665;SDS011;3369;49.906;8.598;2022-10-17T03:39:55;5.80;;;2.80;;
6665;SDS011;3369;49.906;8.598;2022-10-17T03:42:20;2.60;;;2.40;;
6665;SDS011;3369;49.906;8.598;2022-10-17T03:44:46;3.33;;;2.40;;
6665;SDS011;3369;49.906;8.598;2022-10-17T03:47:12;2.70;;;2.50;;
6665;SDS011;3369;49.906;8.598;2022-10-17T03:49:37;2.50;;;2.30;;
6665;SDS011;3369;49.906;8.598;2022-10-17T03:52:03;2.60;;;2.40;;
6665;SDS011;3369;49.906;8.598;2022-10-17T03:54:29;2.70;;;2.43;;
6665;SDS011;3369;49.906;8.598;2022-10-17T03:56:55;4.07;;;2.93;;
6665;SDS011;3369;49.906;8.598;2022-10-17T03:59:20;2.97;;;2.60;;
6665;SDS011;3369;49.906;8.598;2022-10-17T04:01:46;3.07;;;2.87;;
6665;SDS011;3369;49.906;8.598;2022-10-17T04:04:12;3.70;;;2.60;;
6665;SDS011;3369;49.906;8.598;2022-10-17T04:06:37;5.90;;;3.20;;
6665;SDS011;3369;49.906;8.598;2022-10-17T04:09:04;3.00;;;2.70;;
6665;SDS011;3369;49.906;8.598;2022-10-17T04:11:31;3.50;;;2.33;;
6665;SDS011;3369;49.906;8.598;2022-10-17T04:13:57;4.03;;;2.80;;
6665;SDS011;3369;49.906;8.598;2022-10-17T04:16:25;3.00;;;2.43;;
6665;SDS011;3369;49.906;8.598;2022-10-17T04:18:52;2.63;;;2.50;;
6665;SDS011;3369;49.906;8.598;2022-10-17T04:21:19;2.90;;;2.50;;
6665;SDS011;3369;49.906;8.598;2022-10-17T04:23:45;5.17;;;3.03;;
6665;SDS011;3369;49.906;8.598;2022-10-17T04:26:11;3.90;;;3.03;;
6665;SDS011;3369;49.906;8.598;2022-10-17T04:28:37;3.47;;;2.80;;
